Time;durP1;ratioP1;P1;durP2;ratioP2;P2;SDS_P1;SDS_P2;PMS_P1;PMS_P2;Temp;Humidity;BMP_temperature;BMP_pressure;BME280_temperature;BME280_humidity;BME280_pressure;Samples;Min_cycle;Max_cycle;Signal;HPM_P1;HPM_P2
2020/12/06 00:02:22;;;;;;;3.03;1.13;;;11.90;99.90;;;;;;5014591;28;20486;-82
2020/12/06 00:04:48;;;;;;;1.98;1.40;;;11.80;99.90;;;;;;5023937;28;20025;-77
2020/12/06 00:07:13;;;;;;;3.33;1.23;;;11.90;99.90;;;;;;5010026;28;20373;-77
2020/12/06 00:09:39;;;;;;;2.95;1.60;;;12.00;99.90;;;;;;5022085;28;20117;-77
2020/12/06 00:12:05;;;;;;;5.80;1.90;;;12.00;99.90;;;;;;5011180;28;20068;-78
2020/12/06 00:14:31;;;;;;;5.32;2.08;;;12.00;99.90;;;;;;5030792;28;20060;-77
2020/12/06 00:16:57;;;;;;;9.57;2.17;;;12.00;99.90;;;;;;5031657;28;20358;-77
2020/12/06 00:19:22;;;;;;;8.05;2.78;;;12.00;99.90;;;;;;5031374;28;20033;-77
2020/12/06 00:21:48;;;;;;;12.93;2.83;;;12.10;99.90;;;;;;5030978;28;20125;-78
2020/12/06 00:24:15;;;;;;;7.68;2.08;;;12.10;99.90;;;;;;5014836;28;20136;-77
2020/12/06 00:26:41;;;;;;;17.83;2.70;;;12.10;99.90;;;;;;5032513;28;20025;-77
2020/12/06 00:29:06;;;;;;;4.55;2.25;;;12.10;99.90;;;;;;5032504;28;20053;-77
2020/12/06 00:31:32;;;;;;;5.07;2.20;;;12.10;99.90;;;;;;5007329;28;20133;-77
2020/12/06 00:33:58;;;;;;;7.85;1.80;;;12.10;99.90;;;;;;4997661;28;20022;-77
2020/12/06 00:36:23;;;;;;;8.30;1.73;;;12.10;99.90;;;;;;4993163;28;20026;-77
2020/12/06 00:38:49;;;;;;;7.93;1.85;;;12.10;99.90;;;;;;4975985;28;20034;-77
2020/12/06 00:41:16;;;;;;;6.82;1.90;;;12.10;99.90;;;;;;4995116;28;20053;-77
2020/12/06 00:43:43;;;;;;;10.63;2.03;;;12.10;99.90;;;;;;4987808;28;20022;-77
2020/12/06 00:46:09;;;;;;;7.22;1.83;;;12.10;99.90;;;;;;5016605;28;20117;-77
2020/12/06 00:48:35;;;;;;;18.65;2.40;;;12.10;99.90;;;;;;5007854;28;20030;-77
2020/12/06 00:51:01;;;;;;;11.43;2.58;;;12.10;99.90;;;;;;5001442;28;20109;-77
2020/12/06 00:53:27;;;;;;;6.95;2.00;;;12.10;99.90;;;;;;4994365;28;20117;-77
2020/12/06 00:55:53;;;;;;;5.78;1.77;;;12.20;99.90;;;;;;5016158;28;20049;-77
2020/12/06 00:58:19;;;;;;;5.90;2.25;;;12.20;99.90;;;;;;4990992;28;20033;-77
2020/12/06 01:00:45;;;;;;;5.05;1.50;;;12.20;99.90;;;;;;4990859;28;20031;-77
2020/12/06 01:03:11;;;;;;;6.85;1.55;;;12.10;99.90;;;;;;4979208;28;20360;-77
2020/12/06 01:05:37;;;;;;;5.32;2.42;;;12.10;99.90;;;;;;4979102;28;20460;-77
2020/12/06 01:08:03;;;;;;;4.18;1.45;;;12.10;99.90;;;;;;4996591;28;20049;-77
2020/12/06 01:10:29;;;;;;;4.63;1.85;;;12.20;99.90;;;;;;4991071;28;20469;-77
2020/12/06 01:12:54;;;;;;;5.38;1.45;;;12.20;99.90;;;;;;5007218;28;20046;-77
2020/12/06 01:15:20;;;;;;;5.03;1.40;;;12.20;99.90;;;;;;4996542;28;20034;-77
2020/12/06 01:17:46;;;;;;;5.47;2.25;;;12.20;99.90;;;;;;4996559;28;20034;-77
2020/12/06 01:20:11;;;;;;;6.30;1.70;;;12.20;99.90;;;;;;4978678;28;20030;-77
2020/12/06 01:22:37;;;;;;;7.13;1.80;;;12.20;99.90;;;;;;4979085;28;20031;-76
2020/12/06 01:25:05;;;;;;;3.22;2.08;;;12.20;99.90;;;;;;4978923;28;20108;-77
2020/12/06 01:27:31;;;;;;;5.63;2.28;;;12.20;99.90;;;;;;4983922;28;20545;-76
2020/12/06 01:29:57;;;;;;;4.50;1.55;;;12.10;99.90;;;;;;4989477;28;20388;-76
2020/12/06 01:32:23;;;;;;;9.13;1.70;;;12.20;99.90;;;;;;5012875;28;20042;-77
2020/12/06 01:34:49;;;;;;;9.77;2.45;;;12.20;99.90;;;;;;5016147;28;20032;-76
2020/12/06 01:37:14;;;;;;;7.15;1.42;;;12.20;99.90;;;;;;5012277;28;20022;-77
2020/12/06 01:39:40;;;;;;;4.30;1.35;;;12.20;99.90;;;;;;5031877;28;20041;-77
2020/12/06 01:42:05;;;;;;;9.73;1.33;;;12.20;99.90;;;;;;5017684;28;20486;-77
2020/12/06 01:44:31;;;;;;;9.65;1.98;;;12.20;99.90;;;;;;5017585;28;20493;-76
2020/12/06 01:46:57;;;;;;;4.82;1.58;;;12.20;99.90;;;;;;5008144;28;20498;-76
2020/12/06 01:49:25;;;;;;;5.15;1.50;;;12.20;99.90;;;;;;5017239;28;20037;-76
2020/12/06 01:51:55;;;;;;;8.00;1.95;;;12.20;99.90;;;;;;4998253;28;20464;-76
2020/12/06 01:54:22;;;;;;;3.03;1.80;;;12.20;99.90;;;;;;4997591;28;20026;-76
2020/12/06 01:56:48;;;;;;;5.82;1.50;;;12.20;99.90;;;;;;4997673;28;20053;-76
2020/12/06 01:59:13;;;;;;;8.07;1.50;;;12.20;99.90;;;;;;5005689;28;20116;-76
2020/12/06 02:02:24;;;;;;;8.13;1.60;;;12.20;99.90;;;;;;5021451;28;20277;-77
2020/12/06 02:06:01;;;;;;;;;;;;;;;;;;;;;
2020/12/06 02:08:46;;;;;;;6.57;1.77;;;12.20;99.90;;;;;;5031111;28;20069;-76
2020/12/06 02:11:49;;;;;;;8.15;2.58;;;12.30;99.90;;;;;;5013806;28;20044;-76
2020/12/06 02:14:17;;;;;;;3.75;1.30;;;12.30;99.90;;;;;;5013749;28;20034;-76
2020/12/06 02:16:42;;;;;;;3.85;1.70;;;12.30;99.90;;;;;;5016275;28;20014;-76
2020/12/06 02:19:09;;;;;;;5.07;1.80;;;12.20;99.90;;;;;;5012392;28;20116;-76
2020/12/06 02:21:39;;;;;;;2.72;1.30;;;12.20;99.90;;;;;;5033308;28;20448;-76
2020/12/06 02:24:06;;;;;;;2.90;2.47;;;12.30;99.90;;;;;;5015530;28;20028;-76
2020/12/06 02:26:40;;;;;;;4.22;1.38;;;12.20;99.90;;;;;;5014643;28;20117;-76
2020/12/06 02:29:05;;;;;;;6.05;1.40;;;12.20;99.90;;;;;;5018726;28;20025;-76
2020/12/06 02:31:31;;;;;;;2.13;1.05;;;12.30;99.90;;;;;;5025226;28;20050;-76
2020/12/06 02:33:57;;;;;;;1.38;1.00;;;12.20;99.90;;;;;;5022877;28;20515;-76
2020/12/06 02:36:23;;;;;;;4.10;1.20;;;12.20;99.90;;;;;;5046279;28;20030;-76
2020/12/06 02:38:50;;;;;;;4.97;1.15;;;12.10;99.90;;;;;;5017925;28;20049;-76
2020/12/06 02:41:15;;;;;;;4.32;1.80;;;12.10;99.90;;;;;;5025679;28;20028;-76
2020/12/06 02:43:41;;;;;;;5.55;1.30;;;12.10;99.90;;;;;;5034110;28;20026;-76
2020/12/06 02:46:07;;;;;;;2.58;1.00;;;12.00;99.90;;;;;;5020873;28;20121;-76
2020/12/06 02:48:32;;;;;;;1.85;1.33;;;12.10;99.90;;;;;;5034705;28;20029;-76
2020/12/06 02:50:58;;;;;;;1.35;1.25;;;12.10;99.90;;;;;;5030425;28;20109;-76
2020/12/06 02:53:24;;;;;;;6.40;1.38;;;12.00;99.90;;;;;;5038526;28;20013;-76
2020/12/06 02:55:49;;;;;;;3.58;1.48;;;12.00;99.90;;;;;;5024616;28;20060;-76
2020/12/06 02:58:15;;;;;;;2.40;1.17;;;12.00;99.90;;;;;;5036197;28;20472;-76
2020/12/06 03:00:40;;;;;;;1.77;0.93;;;12.00;99.90;;;;;;5029979;28;20037;-75
2020/12/06 03:03:06;;;;;;;2.30;1.13;;;11.90;99.90;;;;;;5027408;28;20076;-76
2020/12/06 03:05:32;;;;;;;2.45;0.98;;;11.90;99.90;;;;;;5021145;28;20439;-76
2020/12/06 03:07:57;;;;;;;1.50;1.10;;;11.80;99.90;;;;;;5013848;28;20033;-76
2020/12/06 03:10:23;;;;;;;2.50;0.93;;;11.90;99.90;;;;;;5019864;28;20026;-76
2020/12/06 03:12:49;;;;;;;2.03;1.20;;;11.80;99.90;;;;;;5019795;28;20022;-76
2020/12/06 03:15:14;;;;;;;1.95;0.98;;;11.80;99.90;;;;;;5028819;28;20141;-76
2020/12/06 03:17:40;;;;;;;2.60;1.20;;;11.80;99.90;;;;;;5027117;28;20080;-76
2020/12/06 03:20:05;;;;;;;4.72;1.50;;;11.80;99.90;;;;;;5028849;28;20026;-76
2020/12/06 03:22:34;;;;;;;2.35;1.00;;;11.80;99.90;;;;;;5039555;28;20018;-75
2020/12/06 03:25:01;;;;;;;1.33;0.95;;;11.80;99.90;;;;;;5012614;28;20030;-76
2020/12/06 03:27:27;;;;;;;3.47;0.90;;;11.80;99.90;;;;;;5029957;28;20033;-76
2020/12/06 03:29:54;;;;;;;0.65;0.63;;;11.80;99.90;;;;;;5031042;28;20053;-75
2020/12/06 03:32:19;;;;;;;2.63;0.80;;;11.70;99.90;;;;;;5046849;28;20499;-76
2020/12/06 03:34:45;;;;;;;2.70;0.82;;;11.70;99.90;;;;;;5042051;28;20022;-75
2020/12/06 03:37:11;;;;;;;3.30;0.50;;;11.70;99.90;;;;;;5024211;28;20052;-75
2020/12/06 03:39:36;;;;;;;2.38;0.70;;;11.70;99.90;;;;;;5026644;28;20045;-75
2020/12/06 03:42:02;;;;;;;1.85;0.50;;;11.60;99.90;;;;;;5029386;28;20021;-75
2020/12/06 03:44:28;;;;;;;2.10;0.57;;;11.70;99.90;;;;;;5025522;28;20037;-76
2020/12/06 03:46:53;;;;;;;5.82;1.35;;;11.60;99.90;;;;;;5025380;28;20025;-76
2020/12/06 03:49:19;;;;;;;1.23;0.68;;;11.60;99.90;;;;;;5050098;28;20041;-76
2020/12/06 03:51:44;;;;;;;1.95;0.68;;;11.60;99.90;;;;;;5034994;28;20025;-75
2020/12/06 03:54:10;;;;;;;0.82;0.75;;;11.60;99.90;;;;;;5029836;28;20022;-76
2020/12/06 03:56:36;;;;;;;4.13;0.85;;;11.60;99.90;;;;;;5033729;28;20045;-83
2020/12/06 03:59:01;;;;;;;6.68;1.10;;;11.60;99.90;;;;;;5052918;28;20053;-83
2020/12/06 04:01:27;;;;;;;2.00;0.90;;;11.60;99.90;;;;;;5035273;28;20109;-83
2020/12/06 04:03:52;;;;;;;1.10;0.70;;;11.60;99.90;;;;;;5015283;28;20125;-83
2020/12/06 04:06:18;;;;;;;2.35;0.65;;;11.60;99.90;;;;;;5015133;28;20025;-83
2020/12/06 04:08:44;;;;;;;2.90;1.02;;;11.70;99.90;;;;;;5043833;28;20033;-83
2020/12/06 04:11:09;;;;;;;2.75;0.82;;;11.70;99.90;;;;;;5041495;28;20025;-83
2020/12/06 04:13:35;;;;;;;0.90;0.63;;;11.70;99.90;;;;;;5047711;28;20025;-83
2020/12/06 04:16:00;;;;;;;2.65;0.80;;;11.70;99.90;;;;;;5052336;28;20036;-83
2020/12/06 04:18:26;;;;;;;3.00;0.80;;;11.60;99.90;;;;;;5056663;28;20028;-83
2020/12/06 04:20:52;;;;;;;2.10;0.70;;;11.70;99.90;;;;;;5056515;28;20056;-83
2020/12/06 04:23:17;;;;;;;1.08;0.68;;;11.70;99.90;;;;;;5048841;28;20112;-83
2020/12/06 04:25:43;;;;;;;3.15;0.75;;;11.70;99.90;;;;;;5019457;28;20467;-83
2020/12/06 04:28:10;;;;;;;3.03;1.20;;;11.70;99.90;;;;;;5021138;28;20548;-83
2020/12/06 04:30:37;;;;;;;1.58;0.40;;;11.70;99.90;;;;;;5056575;28;20013;-83
2020/12/06 04:33:03;;;;;;;0.70;0.55;;;11.60;99.90;;;;;;5056571;28;20060;-83
2020/12/06 04:35:29;;;;;;;2.90;0.77;;;11.70;99.90;;;;;;5056723;28;20079;-83
2020/12/06 04:37:54;;;;;;;2.22;0.73;;;11.60;99.90;;;;;;5056535;28;20071;-83
2020/12/06 04:40:21;;;;;;;2.47;0.85;;;11.60;99.90;;;;;;5056098;28;20567;-83
2020/12/06 04:42:47;;;;;;;1.15;0.80;;;11.60;99.90;;;;;;5047510;28;20022;-83
2020/12/06 04:45:14;;;;;;;3.50;0.70;;;11.60;99.90;;;;;;5045757;28;20051;-83
2020/12/06 04:48:03;;;;;;;2.38;1.20;;;11.60;99.90;;;;;;5038426;28;20167;-83
2020/12/06 04:50:34;;;;;;;2.67;0.70;;;11.60;99.90;;;;;;5056075;28;20032;-83
2020/12/06 04:53:02;;;;;;;3.05;0.90;;;11.60;99.90;;;;;;5037546;28;20040;-83
2020/12/06 04:55:34;;;;;;;1.13;1.00;;;11.60;99.90;;;;;;5037219;28;20026;-83
2020/12/06 04:58:00;;;;;;;2.47;0.52;;;11.50;99.90;;;;;;5046287;28;20033;-83
2020/12/06 05:00:33;;;;;;;5.70;0.88;;;11.50;99.90;;;;;;5056045;28;20040;-83
2020/12/06 05:03:06;;;;;;;6.28;1.25;;;11.50;99.90;;;;;;5038173;28;20033;-83
2020/12/06 05:05:35;;;;;;;3.65;0.73;;;11.50;99.90;;;;;;5056067;28;20497;-83
2020/12/06 05:08:04;;;;;;;1.95;0.95;;;11.50;99.90;;;;;;5038169;28;20505;-83
2020/12/06 05:10:35;;;;;;;4.40;1.70;;;11.50;99.90;;;;;;5038029;28;20044;-83
2020/12/06 05:13:01;;;;;;;0.57;0.52;;;11.50;99.90;;;;;;5038051;28;20035;-83
2020/12/06 05:15:27;;;;;;;2.45;0.77;;;11.50;99.90;;;;;;5037959;28;20425;-83
2020/12/06 05:17:55;;;;;;;5.18;0.90;;;11.50;99.90;;;;;;5055764;28;20013;-83
2020/12/06 05:20:21;;;;;;;0.93;0.63;;;11.50;99.90;;;;;;5055777;28;20033;-83
2020/12/06 05:22:46;;;;;;;0.85;0.68;;;11.50;99.90;;;;;;5035994;28;20079;-83
2020/12/06 05:25:15;;;;;;;0.80;0.73;;;11.50;99.90;;;;;;5021980;28;20483;-83
2020/12/06 05:27:42;;;;;;;3.63;0.90;;;11.50;99.90;;;;;;5025003;28;20025;-82
2020/12/06 05:30:08;;;;;;;2.17;0.75;;;11.40;99.90;;;;;;5023747;28;20034;-83
2020/12/06 05:32:34;;;;;;;8.43;1.20;;;11.40;99.90;;;;;;5035513;28;20491;-83
2020/12/06 05:35:00;;;;;;;1.63;0.80;;;11.40;99.90;;;;;;5018007;28;20056;-83
2020/12/06 05:37:27;;;;;;;2.92;0.68;;;11.40;99.90;;;;;;5035617;28;20024;-83
2020/12/06 05:40:13;;;;;;;3.30;0.80;;;11.40;99.90;;;;;;5048522;28;20029;-83
2020/12/06 05:42:42;;;;;;;3.08;0.57;;;11.40;99.90;;;;;;5017861;28;20026;-83
2020/12/06 05:45:10;;;;;;;1.63;1.30;;;11.40;99.90;;;;;;5020860;28;20025;-83
2020/12/06 05:47:36;;;;;;;4.07;0.93;;;11.40;99.90;;;;;;5033020;28;20025;-83
2020/12/06 05:50:02;;;;;;;0.68;0.50;;;11.40;99.90;;;;;;5030716;28;20036;-83
2020/12/06 05:52:29;;;;;;;4.18;0.75;;;11.40;99.90;;;;;;5035382;28;20495;-83
2020/12/06 05:54:56;;;;;;;8.85;0.80;;;11.40;99.90;;;;;;5035155;28;20036;-83
2020/12/06 05:57:25;;;;;;;5.70;0.50;;;11.30;99.90;;;;;;5053942;28;20375;-83
2020/12/06 05:59:54;;;;;;;1.33;0.70;;;11.30;99.90;;;;;;5033075;28;20475;-83
2020/12/06 06:02:22;;;;;;;1.17;1.05;;;11.30;99.90;;;;;;5054892;28;20029;-83
2020/12/06 06:04:49;;;;;;;1.10;0.60;;;11.30;99.90;;;;;;5048482;28;20018;-83
2020/12/06 06:07:23;;;;;;;4.57;0.85;;;11.40;99.90;;;;;;5025555;28;20421;-83
2020/12/06 06:10:05;;;;;;;5.45;1.20;;;11.40;99.90;;;;;;5050995;28;20091;-83
2020/12/06 06:12:38;;;;;;;0.75;0.75;;;11.30;99.90;;;;;;5036960;28;20498;-83
2020/12/06 06:15:05;;;;;;;7.32;0.60;;;11.30;99.90;;;;;;5054811;28;20029;-83
2020/12/06 06:17:31;;;;;;;1.48;0.82;;;11.40;99.90;;;;;;5036846;28;20428;-83
2020/12/06 06:19:58;;;;;;;2.75;0.40;;;11.40;99.90;;;;;;5053915;28;20082;-83
2020/12/06 06:22:34;;;;;;;1.65;0.40;;;11.30;99.90;;;;;;5054485;28;20036;-82
2020/12/06 06:25:01;;;;;;;1.60;0.63;;;11.30;99.90;;;;;;5054667;28;20087;-83
2020/12/06 06:27:38;;;;;;;1.02;0.70;;;11.30;99.90;;;;;;5054536;28;20394;-82
2020/12/06 06:30:05;;;;;;;0.98;0.88;;;11.30;99.90;;;;;;5054334;28;20016;-82
2020/12/06 06:32:32;;;;;;;1.13;0.70;;;11.30;99.90;;;;;;5033250;28;20402;-83
2020/12/06 06:34:59;;;;;;;1.85;0.70;;;11.30;99.90;;;;;;5036591;28;20025;-82
2020/12/06 06:37:31;;;;;;;3.35;0.65;;;11.30;99.90;;;;;;5046056;28;20120;-82
2020/12/06 06:40:03;;;;;;;1.33;0.75;;;11.30;99.90;;;;;;5015920;28;20112;-83
2020/12/06 06:42:28;;;;;;;1.40;0.57;;;11.40;99.90;;;;;;5035984;28;20033;-83
2020/12/06 06:45:14;;;;;;;1.05;0.88;;;11.40;99.90;;;;;;5054199;28;20080;-83
2020/12/06 06:47:41;;;;;;;3.53;0.50;;;11.40;99.90;;;;;;5034014;28;20041;-82
2020/12/06 06:50:11;;;;;;;4.07;0.50;;;11.30;99.90;;;;;;5047048;28;20092;-82
2020/12/06 06:52:40;;;;;;;1.80;0.82;;;11.30;99.90;;;;;;5035776;28;20074;-82
2020/12/06 06:55:07;;;;;;;0.52;0.40;;;11.30;99.90;;;;;;5043215;28;20052;-82
2020/12/06 06:57:33;;;;;;;0.70;0.70;;;11.30;99.90;;;;;;5029424;28;20013;-83
2020/12/06 07:00:05;;;;;;;0.50;0.50;;;11.30;99.90;;;;;;5025840;28;20479;-83
2020/12/06 07:02:37;;;;;;;2.90;0.77;;;11.30;99.90;;;;;;5044828;28;20044;-83
2020/12/06 07:05:12;;;;;;;0.50;0.50;;;11.30;99.90;;;;;;5053786;28;20086;-83
2020/12/06 07:07:39;;;;;;;1.80;0.65;;;11.30;99.90;;;;;;5053924;28;20025;-83
2020/12/06 07:10:07;;;;;;;2.58;1.23;;;11.30;99.90;;;;;;5042952;28;20505;-83
2020/12/06 07:12:40;;;;;;;0.88;0.50;;;11.30;99.90;;;;;;5021899;28;20033;-84
2020/12/06 07:15:10;;;;;;;0.45;0.45;;;11.30;99.90;;;;;;5033743;28;20029;-83
2020/12/06 07:17:36;;;;;;;2.40;0.88;;;11.30;99.90;;;;;;5037176;28;20034;-83
2020/12/06 07:20:04;;;;;;;3.60;1.10;;;11.30;99.90;;;;;;5031062;28;20028;-83
2020/12/06 07:22:29;;;;;;;0.77;0.77;;;11.20;99.90;;;;;;5053525;28;20021;-83
2020/12/06 07:24:55;;;;;;;2.30;0.70;;;11.20;99.90;;;;;;5053553;28;20096;-83
2020/12/06 07:27:21;;;;;;;1.55;0.93;;;11.20;99.90;;;;;;5046326;28;20025;-83
2020/12/06 07:29:47;;;;;;;1.77;0.82;;;11.20;99.90;;;;;;5030973;28;20029;-83
2020/12/06 07:32:12;;;;;;;2.03;1.10;;;11.20;99.90;;;;;;5033478;28;20045;-83
2020/12/06 07:34:38;;;;;;;4.97;0.88;;;11.20;99.90;;;;;;5053327;28;20165;-82
2020/12/06 07:37:04;;;;;;;1.58;1.20;;;11.20;99.90;;;;;;5035345;28;20113;-83
2020/12/06 07:39:30;;;;;;;3.25;1.42;;;11.20;99.90;;;;;;5035406;28;20033;-83
2020/12/06 07:41:55;;;;;;;1.48;0.98;;;11.20;99.90;;;;;;5053229;28;20025;-83
2020/12/06 07:44:21;;;;;;;3.55;0.98;;;11.20;99.90;;;;;;5053141;28;20056;-83
2020/12/06 07:47:00;;;;;;;2.58;0.90;;;11.20;99.90;;;;;;5046008;28;20029;-83
2020/12/06 07:49:25;;;;;;;2.35;0.88;;;11.20;99.90;;;;;;5032689;28;20298;-83
2020/12/06 07:51:51;;;;;;;0.90;0.90;;;11.20;99.90;;;;;;5033185;28;21476;-83
2020/12/06 07:54:17;;;;;;;3.10;1.00;;;11.20;99.90;;;;;;5047597;28;20154;-83
2020/12/06 07:56:49;;;;;;;2.45;1.00;;;11.10;99.90;;;;;;5052996;28;20025;-83
2020/12/06 07:59:24;;;;;;;0.85;0.85;;;11.10;99.90;;;;;;5034560;28;20021;-83
2020/12/06 08:01:53;;;;;;;1.35;1.25;;;11.10;99.90;;;;;;5053292;28;20029;-83
2020/12/06 08:04:29;;;;;;;1.17;1.08;;;11.10;99.90;;;;;;5052056;28;20126;-83
2020/12/06 08:07:03;;;;;;;1.83;1.20;;;11.10;99.90;;;;;;5034810;28;20025;-83
2020/12/06 08:09:31;;;;;;;6.00;4.78;;;11.10;99.90;;;;;;5023056;28;20508;-83
2020/12/06 08:12:01;;;;;;;3.28;2.63;;;11.10;99.90;;;;;;5041159;28;20025;-83
2020/12/06 08:14:27;;;;;;;6.15;4.28;;;11.10;99.90;;;;;;5045676;28;20017;-83
2020/12/06 08:16:56;;;;;;;4.05;3.35;;;11.10;99.90;;;;;;5035547;28;20018;-82
2020/12/06 08:19:29;;;;;;;3.95;2.60;;;11.10;99.90;;;;;;5050522;28;20025;-83
2020/12/06 08:22:14;;;;;;;6.03;2.30;;;11.10;99.90;;;;;;5040790;28;20032;-82
2020/12/06 08:25:07;;;;;;;2.25;2.05;;;11.10;99.90;;;;;;5050654;28;20079;-83
2020/12/06 08:27:45;;;;;;;3.88;2.83;;;11.10;99.90;;;;;;5041980;28;20040;-82
2020/12/06 08:30:13;;;;;;;5.50;2.60;;;11.10;99.90;;;;;;5035057;28;20029;-82
2020/12/06 08:32:49;;;;;;;4.45;3.28;;;11.10;99.90;;;;;;5024426;28;20115;-83
2020/12/06 08:35:14;;;;;;;6.60;2.88;;;11.00;99.90;;;;;;5046814;28;20021;-82
2020/12/06 08:37:40;;;;;;;2.20;2.00;;;11.00;99.90;;;;;;5062025;28;20029;-83
2020/12/06 08:40:06;;;;;;;1.80;1.70;;;11.00;99.90;;;;;;5049463;28;20040;-82
2020/12/06 08:42:31;;;;;;;3.42;1.50;;;11.00;99.90;;;;;;5033447;28;20842;-82
2020/12/06 08:44:59;;;;;;;2.40;2.20;;;11.00;99.90;;;;;;5014885;28;20040;-83
2020/12/06 08:47:38;;;;;;;2.40;1.80;;;11.00;99.90;;;;;;5032576;28;20048;-83
2020/12/06 08:50:07;;;;;;;2.22;1.90;;;11.00;99.90;;;;;;5034465;28;20121;-83
2020/12/06 08:52:33;;;;;;;2.90;1.23;;;11.00;99.90;;;;;;5037808;28;20029;-83
2020/12/06 08:54:58;;;;;;;3.90;1.83;;;11.10;99.90;;;;;;5046794;28;20027;-83
2020/12/06 08:57:26;;;;;;;2.80;2.60;;;11.00;99.90;;;;;;5049928;28;20032;-83
2020/12/06 09:13:17;;;;;;;12.07;9.10;;;11.00;99.90;;;;;;5055764;28;20403;-84
2020/12/06 09:15:43;;;;;;;9.60;6.55;;;11.20;99.90;;;;;;5058517;27;20028;-83
2020/12/06 09:18:09;;;;;;;7.65;5.05;;;11.20;99.90;;;;;;5065432;28;20025;-83
2020/12/06 09:20:34;;;;;;;9.07;7.53;;;11.20;99.90;;;;;;5064050;28;20032;-83
2020/12/06 09:23:00;;;;;;;8.27;6.82;;;11.10;99.90;;;;;;5046491;28;20037;-84
2020/12/06 09:25:25;;;;;;;4.85;4.15;;;11.10;99.90;;;;;;5051649;28;20024;-83
2020/12/06 09:27:51;;;;;;;4.85;4.32;;;10.90;99.90;;;;;;5065399;28;20388;-83
2020/12/06 09:30:17;;;;;;;5.82;5.32;;;10.80;99.90;;;;;;5061229;27;20020;-83
2020/12/06 09:32:46;;;;;;;6.75;4.82;;;10.80;99.90;;;;;;5083520;27;20023;-77
2020/12/06 09:35:11;;;;;;;8.88;6.25;;;10.70;99.90;;;;;;5054005;27;20044;-83
2020/12/06 09:37:37;;;;;;;8.88;6.82;;;10.70;99.90;;;;;;5054837;28;20033;-83
2020/12/06 09:40:03;;;;;;;6.70;6.00;;;10.70;99.90;;;;;;5054741;28;20052;-83
2020/12/06 09:42:28;;;;;;;13.70;7.63;;;10.50;99.90;;;;;;5062408;28;20024;-83
2020/12/06 09:44:54;;;;;;;15.27;9.73;;;10.50;99.90;;;;;;5044879;28;20029;-83
2020/12/06 09:47:20;;;;;;;18.48;10.57;;;10.50;99.90;;;;;;5046206;28;20025;-83
2020/12/06 09:49:45;;;;;;;12.40;9.55;;;10.50;99.90;;;;;;5044944;28;20073;-83
2020/12/06 09:52:11;;;;;;;11.40;9.65;;;10.50;99.90;;;;;;5055096;28;20020;-83
2020/12/06 09:54:40;;;;;;;14.75;10.50;;;10.60;99.90;;;;;;5058450;28;20036;-83
2020/12/06 09:57:06;;;;;;;15.85;10.18;;;10.60;99.90;;;;;;5044764;28;20036;-83
2020/12/06 09:59:31;;;;;;;15.90;10.80;;;10.60;99.90;;;;;;5045962;28;20021;-83
2020/12/06 10:01:57;;;;;;;17.08;9.23;;;10.60;99.90;;;;;;5058374;28;20025;-82
2020/12/06 10:04:22;;;;;;;21.38;11.93;;;10.60;99.90;;;;;;5065262;27;20112;-83
2020/12/06 10:06:48;;;;;;;18.95;13.63;;;10.60;99.90;;;;;;5044543;28;20078;-83
2020/12/06 10:09:14;;;;;;;18.25;11.85;;;10.60;99.90;;;;;;5045847;28;20047;-83
2020/12/06 10:11:39;;;;;;;21.52;13.65;;;10.60;99.90;;;;;;5044346;28;21054;-83
2020/12/06 10:14:05;;;;;;;20.95;12.77;;;10.60;99.90;;;;;;5032906;28;20100;-83
2020/12/06 10:16:31;;;;;;;20.58;13.45;;;10.60;99.90;;;;;;5031140;28;20503;-83
2020/12/06 10:18:56;;;;;;;23.40;13.70;;;10.60;99.90;;;;;;5031213;28;20369;-83
2020/12/06 10:21:22;;;;;;;27.83;16.58;;;10.60;99.90;;;;;;5032338;28;20181;-82
2020/12/06 10:23:48;;;;;;;25.08;16.55;;;10.60;99.90;;;;;;5032254;28;20029;-83
2020/12/06 10:26:13;;;;;;;19.92;14.27;;;10.60;99.90;;;;;;5031047;28;20142;-81
2020/12/06 10:28:39;;;;;;;30.75;15.85;;;10.70;99.90;;;;;;5040675;28;20017;-82
2020/12/06 10:31:05;;;;;;;15.35;12.13;;;10.60;99.90;;;;;;5050906;28;20037;-82
2020/12/06 10:33:30;;;;;;;25.67;15.13;;;10.60;99.90;;;;;;5051933;28;20036;-82
2020/12/06 10:35:56;;;;;;;16.73;12.80;;;10.60;99.90;;;;;;5050798;28;20029;-82
2020/12/06 10:38:22;;;;;;;19.17;13.52;;;10.60;99.90;;;;;;5051972;28;20040;-82
2020/12/06 10:40:51;;;;;;;18.20;12.18;;;10.70;99.90;;;;;;5051825;28;20025;-83
2020/12/06 10:43:16;;;;;;;16.10;10.95;;;10.70;99.90;;;;;;5051719;28;20025;-83
2020/12/06 10:45:42;;;;;;;11.77;8.20;;;10.70;99.90;;;;;;5041792;28;20404;-83
2020/12/06 10:48:08;;;;;;;13.25;7.15;;;10.80;99.90;;;;;;5031838;28;20395;-83
2020/12/06 10:50:34;;;;;;;9.55;6.25;;;10.80;99.90;;;;;;5031049;28;20447;-83
2020/12/06 10:53:00;;;;;;;3.97;3.67;;;10.80;99.90;;;;;;5031759;28;20021;-83
2020/12/06 10:55:25;;;;;;;3.83;3.03;;;10.80;99.90;;;;;;5031821;28;20109;-82
2020/12/06 10:57:53;;;;;;;3.03;2.53;;;10.90;99.90;;;;;;5030580;28;20032;-83
2020/12/06 11:00:19;;;;;;;3.60;2.60;;;10.90;99.90;;;;;;5031672;28;20489;-82
2020/12/06 11:02:45;;;;;;;2.67;2.30;;;10.90;99.90;;;;;;5030238;28;20030;-79
2020/12/06 11:05:11;;;;;;;1.17;1.15;;;11.10;99.90;;;;;;5029525;28;20025;-82
2020/12/06 11:07:37;;;;;;;2.67;1.42;;;11.10;99.90;;;;;;5030159;28;20507;-82
2020/12/06 11:10:03;;;;;;;0.90;0.90;;;11.10;99.90;;;;;;5030623;28;20056;-83
2020/12/06 11:12:28;;;;;;;0.80;0.80;;;11.20;99.90;;;;;;5031329;28;20053;-82
2020/12/06 11:14:54;;;;;;;2.13;1.80;;;11.10;99.90;;;;;;5031539;28;20040;-82
2020/12/06 11:17:19;;;;;;;2.80;2.60;;;11.10;99.90;;;;;;5048342;27;20032;-82
2020/12/06 11:19:45;;;;;;;3.05;2.70;;;11.10;99.90;;;;;;5054579;27;21461;-82
2020/12/06 11:22:11;;;;;;;2.17;1.10;;;11.10;99.90;;;;;;5085106;27;20107;-82
2020/12/06 11:24:36;;;;;;;0.52;0.52;;;11.10;99.90;;;;;;5028889;28;20021;-82
2020/12/06 11:27:02;;;;;;;1.67;0.45;;;11.10;99.90;;;;;;5039522;28;20025;-83
2020/12/06 11:29:28;;;;;;;0.80;0.77;;;11.20;99.90;;;;;;5035706;28;20106;-82
2020/12/06 11:31:54;;;;;;;0.50;0.50;;;11.10;99.90;;;;;;5031166;28;20030;-83
2020/12/06 11:34:20;;;;;;;0.90;0.65;;;11.20;99.90;;;;;;5031230;28;20029;-83
2020/12/06 11:36:52;;;;;;;0.63;0.50;;;11.20;99.90;;;;;;5029952;28;20373;-83
2020/12/06 11:39:18;;;;;;;0.68;0.68;;;11.20;99.90;;;;;;5031198;28;20108;-83
2020/12/06 11:41:44;;;;;;;0.90;0.60;;;11.20;99.90;;;;;;5031140;28;20164;-83
2020/12/06 11:44:09;;;;;;;0.63;0.50;;;11.20;99.90;;;;;;5030921;28;20025;-82
2020/12/06 11:46:35;;;;;;;0.88;0.88;;;11.20;99.90;;;;;;5031109;28;20078;-82
2020/12/06 11:49:01;;;;;;;5.00;4.38;;;11.20;99.90;;;;;;5029794;28;20063;-82
2020/12/06 11:51:27;;;;;;;8.57;5.15;;;11.10;99.90;;;;;;5031036;28;20049;-82
2020/12/06 11:53:52;;;;;;;11.40;8.35;;;11.10;99.90;;;;;;5030872;28;20433;-83
2020/12/06 11:56:18;;;;;;;13.18;8.18;;;11.10;99.90;;;;;;5029708;28;20025;-82
2020/12/06 11:58:47;;;;;;;14.88;9.13;;;11.00;99.90;;;;;;5030905;28;20082;-82
2020/12/06 12:01:14;;;;;;;14.90;10.63;;;10.90;99.90;;;;;;5029570;28;20034;-85
2020/12/06 12:03:40;;;;;;;17.42;11.75;;;10.80;99.90;;;;;;5029546;28;20034;-83
2020/12/06 12:06:05;;;;;;;16.20;11.27;;;10.70;99.90;;;;;;5030724;28;20026;-83
2020/12/06 12:08:31;;;;;;;15.65;11.52;;;10.60;99.90;;;;;;5030713;28;20053;-83
2020/12/06 12:10:59;;;;;;;24.25;10.00;;;10.60;99.90;;;;;;5029287;28;20117;-83
2020/12/06 12:13:26;;;;;;;14.45;9.35;;;10.50;99.90;;;;;;5030521;28;20037;-83
2020/12/06 12:15:52;;;;;;;11.13;9.15;;;10.40;99.90;;;;;;5030530;28;20365;-83
2020/12/06 12:18:18;;;;;;;10.48;8.85;;;10.50;99.90;;;;;;5073287;27;20025;-83
2020/12/06 12:20:43;;;;;;;12.65;8.38;;;10.40;99.90;;;;;;5053577;27;20040;-83
2020/12/06 12:23:09;;;;;;;9.43;7.72;;;10.50;99.90;;;;;;5052330;27;20049;-83
2020/12/06 12:25:36;;;;;;;9.85;7.38;;;10.40;99.90;;;;;;5118415;27;20038;-83
2020/12/06 12:28:02;;;;;;;8.40;7.60;;;10.40;99.90;;;;;;5129656;27;20421;-83
2020/12/06 12:30:28;;;;;;;7.65;6.70;;;10.30;99.90;;;;;;5030539;28;20108;-83
2020/12/06 12:32:53;;;;;;;8.20;6.90;;;10.30;99.90;;;;;;5030254;28;20090;-83
2020/12/06 12:35:19;;;;;;;8.60;7.45;;;10.30;99.90;;;;;;5029955;28;20025;-83
2020/12/06 12:37:45;;;;;;;10.23;6.45;;;10.20;99.90;;;;;;5029100;28;20025;-83
2020/12/06 12:40:10;;;;;;;7.93;6.68;;;10.20;99.90;;;;;;5028826;28;20025;-83
2020/12/06 12:42:36;;;;;;;7.60;6.78;;;10.10;99.90;;;;;;5043902;28;20383;-83
2020/12/06 12:45:02;;;;;;;8.07;6.82;;;10.00;99.90;;;;;;5045375;28;20480;-83
2020/12/06 12:47:27;;;;;;;8.25;7.45;;;10.00;99.90;;;;;;5028803;28;20429;-83
2020/12/06 12:49:54;;;;;;;9.02;7.07;;;10.00;99.90;;;;;;5030018;28;20026;-83
2020/12/06 12:52:20;;;;;;;9.15;8.02;;;10.00;99.90;;;;;;5030023;28;20056;-83
2020/12/06 12:54:45;;;;;;;20.20;11.45;;;10.00;99.90;;;;;;5029894;28;20045;-83
2020/12/06 12:57:11;;;;;;;7.72;6.80;;;9.90;99.90;;;;;;5028583;28;20018;-83
2020/12/06 12:59:37;;;;;;;7.43;6.68;;;9.70;99.90;;;;;;5030002;28;20133;-83
2020/12/06 13:02:02;;;;;;;7.65;6.78;;;9.70;99.90;;;;;;5028524;28;20025;-83